Time;durP1;ratioP1;P1;durP2;ratioP2;P2;SDS_P1;SDS_P2;PMS_P1;PMS_P2;Temp;Humidity;BMP_temperature;BMP_pressure;BME280_temperature;BME280_humidity;BME280_pressure;Samples;Min_cycle;Max_cycle;Signal;HPM_P1;HPM_P2
2023/07/07 00:02:24;;;;;;;6.80;6.70;;;12.50;99.90;;;;;;5046427;28;20830;-64
2023/07/07 00:04:51;;;;;;;7.90;7.80;;;12.50;99.90;;;;;;5051838;28;20818;-66
2023/07/07 00:07:17;;;;;;;7.50;7.40;;;12.50;99.90;;;;;;5045980;28;20514;-66
2023/07/07 00:09:44;;;;;;;7.57;7.47;;;12.50;99.90;;;;;;5049972;28;20472;-64
2023/07/07 00:12:13;;;;;;;8.00;7.90;;;12.50;99.90;;;;;;5052974;28;20467;-66
2023/07/07 00:14:41;;;;;;;9.03;8.83;;;12.50;99.90;;;;;;5049480;28;20960;-65
2023/07/07 00:17:08;;;;;;;8.00;7.90;;;12.50;99.90;;;;;;5041143;28;20484;-65
2023/07/07 00:19:36;;;;;;;8.00;7.90;;;12.40;99.90;;;;;;5029942;28;20483;-66
2023/07/07 00:22:05;;;;;;;8.30;8.10;;;12.40;99.90;;;;;;5055316;28;21012;-66
2023/07/07 00:24:33;;;;;;;8.73;8.53;;;12.40;99.90;;;;;;5049962;28;20464;-67
2023/07/07 00:27:00;;;;;;;8.43;8.23;;;12.40;99.90;;;;;;5047942;28;20514;-65
2023/07/07 00:29:29;;;;;;;8.37;8.17;;;12.30;99.90;;;;;;5034693;28;20526;-66
2023/07/07 00:31:57;;;;;;;9.20;9.00;;;12.30;99.90;;;;;;5046850;28;23323;-65
2023/07/07 00:34:25;;;;;;;10.00;9.70;;;12.20;99.90;;;;;;5060487;28;20460;-66
2023/07/07 00:36:52;;;;;;;10.33;10.13;;;12.20;99.90;;;;;;5040770;28;20468;-66
2023/07/07 00:39:19;;;;;;;9.30;9.00;;;12.20;99.90;;;;;;5052722;28;20819;-66
2023/07/07 00:41:48;;;;;;;8.90;8.70;;;12.10;99.90;;;;;;5046256;28;20868;-66
2023/07/07 00:44:15;;;;;;;8.73;8.53;;;12.10;99.90;;;;;;5054879;28;20464;-66
2023/07/07 00:46:43;;;;;;;9.83;9.53;;;12.00;99.90;;;;;;5048318;28;20547;-66
2023/07/07 00:49:14;;;;;;;11.53;11.13;;;12.00;99.90;;;;;;5050195;28;20489;-65
2023/07/07 00:51:45;;;;;;;11.37;11.07;;;12.00;99.90;;;;;;5048626;28;20702;-65
2023/07/07 00:54:16;;;;;;;9.20;8.90;;;12.00;99.90;;;;;;5044463;28;20460;-65
2023/07/07 00:56:47;;;;;;;9.13;8.83;;;11.90;99.90;;;;;;5059454;28;20469;-66
2023/07/07 00:59:20;;;;;;;9.10;8.80;;;11.90;99.90;;;;;;5051068;28;20985;-66
2023/07/07 01:01:56;;;;;;;8.80;8.50;;;11.90;99.90;;;;;;5046983;28;21086;-65
2023/07/07 01:04:23;;;;;;;9.20;8.90;;;11.80;99.90;;;;;;5039822;28;20456;-65
2023/07/07 01:06:54;;;;;;;10.23;9.83;;;11.70;99.90;;;;;;5059644;28;20844;-66
2023/07/07 01:09:21;;;;;;;9.50;9.20;;;11.60;99.90;;;;;;5047957;28;20984;-67
2023/07/07 01:11:48;;;;;;;9.70;9.40;;;11.60;99.90;;;;;;5053163;28;20454;-64
2023/07/07 01:14:19;;;;;;;9.43;9.13;;;11.60;99.90;;;;;;5047876;28;20459;-64
2023/07/07 01:16:58;;;;;;;9.30;9.00;;;11.60;99.90;;;;;;5048502;28;20849;-64
2023/07/07 01:20:09;;;;;;;9.83;9.53;;;11.60;99.90;;;;;;5050711;28;20832;-65
2023/07/07 01:23:04;;;;;;;9.40;9.10;;;11.60;99.90;;;;;;5052513;28;21016;-66
2023/07/07 01:25:43;;;;;;;9.63;9.33;;;11.60;99.90;;;;;;5054763;28;20673;-65
2023/07/07 01:28:25;;;;;;;9.73;9.43;;;11.60;99.90;;;;;;5060973;28;20528;-65
2023/07/07 01:30:56;;;;;;;9.47;9.17;;;11.50;99.90;;;;;;5051261;28;20521;-66
2023/07/07 01:33:26;;;;;;;9.63;9.33;;;11.50;99.90;;;;;;5042492;28;20720;-65
2023/07/07 01:35:53;;;;;;;9.43;9.13;;;11.60;99.90;;;;;;5054300;28;20950;-66
2023/07/07 01:38:36;;;;;;;10.03;9.73;;;11.60;99.90;;;;;;5050070;28;20940;-65
2023/07/07 01:41:21;;;;;;;9.60;9.30;;;11.60;99.90;;;;;;5052123;28;20467;-65
2023/07/07 01:43:55;;;;;;;8.80;8.50;;;11.50;99.90;;;;;;5048578;28;20868;-64
2023/07/07 01:46:29;;;;;;;9.33;9.03;;;11.50;99.90;;;;;;5052360;28;20466;-65
2023/07/07 01:49:03;;;;;;;9.70;9.40;;;11.40;99.90;;;;;;5054930;28;20498;-65
2023/07/07 01:51:38;;;;;;;9.47;9.17;;;11.30;99.90;;;;;;5047391;28;20491;-65
2023/07/07 01:54:08;;;;;;;9.77;9.47;;;11.20;99.90;;;;;;5061646;28;20513;-65
2023/07/07 01:56:37;;;;;;;11.77;11.37;;;11.20;99.90;;;;;;5053302;28;20557;-66
2023/07/07 01:59:05;;;;;;;10.17;9.87;;;11.20;99.90;;;;;;5045196;28;20457;-66
2023/07/07 02:01:36;;;;;;;9.40;9.10;;;11.20;99.90;;;;;;5054384;28;20463;-66
2023/07/07 02:04:04;;;;;;;9.23;8.93;;;11.20;99.90;;;;;;5049558;28;20451;-66
2023/07/07 02:06:31;;;;;;;9.40;9.10;;;11.20;99.90;;;;;;5049328;28;20456;-64
2023/07/07 02:08:57;;;;;;;9.23;8.93;;;11.10;99.90;;;;;;5053109;28;20557;-65
2023/07/07 02:11:25;;;;;;;9.20;8.90;;;11.10;99.90;;;;;;5039426;28;20737;-65
2023/07/07 02:13:53;;;;;;;8.77;8.47;;;11.00;99.90;;;;;;5061987;28;20512;-66
2023/07/07 02:16:19;;;;;;;9.13;8.83;;;11.00;99.90;;;;;;5043137;28;20990;-65
2023/07/07 02:18:49;;;;;;;9.67;9.37;;;11.00;99.90;;;;;;5034379;28;20958;-66
2023/07/07 02:21:17;;;;;;;9.10;8.80;;;10.90;99.90;;;;;;5063173;28;20478;-66
2023/07/07 02:23:44;;;;;;;9.13;8.83;;;10.90;99.90;;;;;;5054593;28;20750;-66
2023/07/07 02:26:11;;;;;;;10.80;10.40;;;10.90;99.90;;;;;;5050134;28;21052;-66
2023/07/07 02:28:38;;;;;;;9.30;9.00;;;10.90;99.90;;;;;;5051363;28;20561;-65
2023/07/07 02:31:07;;;;;;;9.23;8.93;;;10.90;99.90;;;;;;5050649;28;20490;-66
2023/07/07 02:33:34;;;;;;;10.70;10.30;;;10.90;99.90;;;;;;5050357;28;20475;-66
2023/07/07 02:36:05;;;;;;;9.70;9.40;;;10.90;99.90;;;;;;5042368;28;20510;-66
2023/07/07 02:38:33;;;;;;;9.70;9.40;;;10.90;99.90;;;;;;5051202;28;20463;-66
2023/07/07 02:41:00;;;;;;;9.53;9.23;;;10.90;99.90;;;;;;5056118;28;20472;-65
2023/07/07 02:43:27;;;;;;;9.80;9.50;;;10.80;99.90;;;;;;5048369;28;20471;-66
2023/07/07 02:45:54;;;;;;;10.03;9.73;;;10.80;99.90;;;;;;5055932;28;20823;-67
2023/07/07 02:48:23;;;;;;;9.43;9.13;;;10.80;99.90;;;;;;5055321;28;20951;-65
2023/07/07 02:50:57;;;;;;;12.90;12.50;;;10.80;99.90;;;;;;5055632;28;20490;-66
2023/07/07 02:53:28;;;;;;;9.60;9.30;;;10.80;99.90;;;;;;5038256;28;20552;-67
2023/07/07 02:55:55;;;;;;;9.57;9.27;;;10.70;99.90;;;;;;5052098;28;20533;-65
2023/07/07 02:58:22;;;;;;;9.50;9.20;;;10.70;99.90;;;;;;5032802;28;20495;-65
2023/07/07 03:00:49;;;;;;;9.37;9.07;;;10.60;99.90;;;;;;5042946;28;20463;-66
2023/07/07 03:03:18;;;;;;;9.83;9.53;;;10.60;99.90;;;;;;5050306;28;20786;-66
2023/07/07 03:05:45;;;;;;;9.30;9.00;;;10.50;99.90;;;;;;5050412;28;20475;-65
2023/07/07 03:08:12;;;;;;;9.70;9.40;;;10.50;99.90;;;;;;5050995;28;20491;-67
2023/07/07 03:10:42;;;;;;;9.63;9.33;;;10.50;99.90;;;;;;5047284;28;20487;-66
2023/07/07 03:13:09;;;;;;;10.17;9.87;;;10.50;99.90;;;;;;5038694;28;20459;-67
2023/07/07 03:15:39;;;;;;;9.30;9.00;;;10.50;99.90;;;;;;5039797;28;21013;-65
2023/07/07 03:18:08;;;;;;;10.20;9.90;;;10.50;99.90;;;;;;5048123;28;20982;-66
2023/07/07 03:20:39;;;;;;;10.13;9.83;;;10.50;99.90;;;;;;5056862;28;20949;-65
2023/07/07 03:23:06;;;;;;;9.17;8.87;;;10.50;99.90;;;;;;5037716;28;20551;-66
2023/07/07 03:25:33;;;;;;;9.23;8.93;;;10.50;99.90;;;;;;5052508;28;20463;-66
2023/07/07 03:28:01;;;;;;;9.13;8.83;;;10.50;99.90;;;;;;5053157;28;20939;-66
2023/07/07 03:30:29;;;;;;;9.00;8.70;;;10.50;99.90;;;;;;5049762;28;20452;-66
2023/07/07 03:32:55;;;;;;;9.63;9.33;;;10.50;99.90;;;;;;5051212;28;20537;-64
2023/07/07 03:35:22;;;;;;;9.70;9.40;;;10.50;99.90;;;;;;5046934;28;20832;-65
2023/07/07 03:37:49;;;;;;;9.53;9.23;;;10.50;99.90;;;;;;5051236;28;20470;-65
2023/07/07 03:40:16;;;;;;;9.63;9.33;;;10.50;99.90;;;;;;5051170;28;20889;-67
2023/07/07 03:42:44;;;;;;;9.60;9.30;;;10.50;99.90;;;;;;5058117;28;20495;-66
2023/07/07 03:45:13;;;;;;;9.47;9.17;;;10.50;99.90;;;;;;5054279;28;20874;-64
2023/07/07 03:47:39;;;;;;;9.57;9.27;;;10.60;99.90;;;;;;5047210;28;20458;-67
2023/07/07 03:50:09;;;;;;;9.40;9.10;;;10.50;99.90;;;;;;5051870;28;20521;-65
2023/07/07 03:52:36;;;;;;;9.57;9.27;;;10.60;99.90;;;;;;5042218;28;20885;-65
2023/07/07 03:55:04;;;;;;;10.07;9.77;;;10.60;99.90;;;;;;5044510;28;20565;-66
2023/07/07 03:57:32;;;;;;;9.90;9.60;;;10.60;99.90;;;;;;5043904;28;20489;-65
2023/07/07 04:00:00;;;;;;;12.03;11.63;;;10.60;99.90;;;;;;5050510;28;20463;-66
2023/07/07 04:02:28;;;;;;;10.20;9.90;;;10.70;99.90;;;;;;5056741;28;20473;-66
2023/07/07 04:04:55;;;;;;;10.10;9.80;;;10.70;99.90;;;;;;5047504;28;20475;-65
2023/07/07 04:07:23;;;;;;;10.40;10.00;;;10.70;99.90;;;;;;5041662;28;20498;-65
2023/07/07 04:09:52;;;;;;;10.40;10.00;;;10.70;99.90;;;;;;5048814;28;21020;-66
2023/07/07 04:12:19;;;;;;;10.33;9.93;;;10.80;99.90;;;;;;5049378;28;20463;-67
2023/07/07 04:14:46;;;;;;;10.03;9.73;;;10.90;99.90;;;;;;5046726;28;20463;-66
2023/07/07 04:17:13;;;;;;;10.20;9.90;;;10.90;99.90;;;;;;5048334;28;20950;-66
2023/07/07 04:19:42;;;;;;;10.83;10.43;;;10.90;99.90;;;;;;5056107;28;20970;-66
2023/07/07 04:22:10;;;;;;;10.60;10.20;;;11.00;99.90;;;;;;5058057;28;20962;-65
2023/07/07 04:24:37;;;;;;;10.87;10.47;;;11.00;99.90;;;;;;5047914;28;20475;-65
2023/07/07 04:27:04;;;;;;;11.13;10.73;;;11.00;99.90;;;;;;5050050;28;20554;-67
2023/07/07 04:29:31;;;;;;;9.60;9.30;;;11.10;99.90;;;;;;5051804;28;21032;-68
2023/07/07 04:32:00;;;;;;;10.00;9.70;;;11.10;99.90;;;;;;5048220;28;20452;-67
2023/07/07 04:34:27;;;;;;;10.87;10.47;;;11.20;99.90;;;;;;5035033;28;20463;-64
2023/07/07 04:36:55;;;;;;;9.97;9.67;;;11.20;99.90;;;;;;5047804;28;20456;-66
2023/07/07 04:39:22;;;;;;;10.60;10.20;;;11.20;99.90;;;;;;5051660;28;20525;-65
2023/07/07 04:41:51;;;;;;;10.73;10.33;;;11.30;99.90;;;;;;5040464;28;20459;-66
2023/07/07 04:44:18;;;;;;;10.53;10.13;;;11.40;99.90;;;;;;5046622;28;20551;-66
2023/07/07 04:46:44;;;;;;;18.73;11.37;;;11.50;99.90;;;;;;5050370;28;20466;-66
2023/07/07 04:49:11;;;;;;;10.73;10.33;;;11.60;99.90;;;;;;5053117;28;20527;-67
2023/07/07 04:51:41;;;;;;;10.70;10.30;;;11.80;99.90;;;;;;5050658;28;20523;-66
2023/07/07 04:54:12;;;;;;;9.83;9.53;;;11.90;99.90;;;;;;5051205;28;20490;-65
2023/07/07 04:56:40;;;;;;;9.10;8.80;;;12.00;99.90;;;;;;5049160;28;20509;-67
2023/07/07 04:59:07;;;;;;;9.63;9.33;;;12.10;99.90;;;;;;5039892;28;20456;-66
2023/07/07 05:01:35;;;;;;;10.70;10.17;;;12.10;99.90;;;;;;5044383;28;20915;-65
2023/07/07 05:04:04;;;;;;;10.80;10.40;;;12.30;99.90;;;;;;5035239;28;20491;-65
2023/07/07 05:06:34;;;;;;;10.03;9.70;;;12.60;99.90;;;;;;5035341;28;20461;-65
2023/07/07 05:09:03;;;;;;;10.43;10.03;;;12.80;99.90;;;;;;5036012;28;20495;-67
2023/07/07 05:11:34;;;;;;;11.13;10.73;;;13.00;99.90;;;;;;5035940;28;20833;-66
2023/07/07 05:14:03;;;;;;;10.93;10.53;;;13.20;99.90;;;;;;5036743;28;20452;-66
2023/07/07 05:16:32;;;;;;;11.70;11.30;;;13.30;99.90;;;;;;5038245;28;20498;-65
2023/07/07 05:19:00;;;;;;;12.40;11.90;;;13.50;99.90;;;;;;5040678;28;20474;-65
2023/07/07 05:21:27;;;;;;;12.73;12.23;;;13.70;99.90;;;;;;5037464;28;20538;-66
2023/07/07 05:23:54;;;;;;;11.87;11.37;;;13.90;99.90;;;;;;5037367;28;20505;-65
2023/07/07 05:26:21;;;;;;;12.83;12.33;;;14.10;99.90;;;;;;5048425;28;20448;-64
2023/07/07 05:28:51;;;;;;;24.67;22.67;;;14.30;99.90;;;;;;5041533;28;20537;-67
2023/07/07 05:31:17;;;;;;;13.03;12.50;;;14.50;99.90;;;;;;5045495;28;20880;-65
2023/07/07 05:33:44;;;;;;;13.90;13.30;;;14.70;99.90;;;;;;5056083;28;20456;-67
2023/07/07 05:36:11;;;;;;;13.20;12.70;;;14.90;99.90;;;;;;5048723;28;20456;-64
2023/07/07 05:38:40;;;;;;;13.50;12.90;;;15.10;99.90;;;;;;5039620;28;20468;-66
2023/07/07 05:41:08;;;;;;;14.17;13.47;;;15.20;99.90;;;;;;5036031;28;20590;-66
2023/07/07 05:43:35;;;;;;;13.37;12.77;;;15.40;99.90;;;;;;5034263;28;20554;-65
2023/07/07 05:46:07;;;;;;;14.00;13.40;;;15.50;99.90;;;;;;5036634;28;20463;-65
2023/07/07 05:48:34;;;;;;;13.10;12.60;;;15.80;99.90;;;;;;5036095;28;20508;-65
2023/07/07 05:51:04;;;;;;;13.57;12.97;;;16.00;99.90;;;;;;5036907;28;20504;-66
2023/07/07 05:53:31;;;;;;;13.43;12.83;;;16.20;99.90;;;;;;5036269;28;20898;-66
2023/07/07 05:56:06;;;;;;;16.07;14.83;;;16.40;99.90;;;;;;5037031;28;20475;-65
2023/07/07 05:58:34;;;;;;;15.40;13.80;;;16.60;99.90;;;;;;5046681;28;21008;-66
2023/07/07 06:01:01;;;;;;;14.17;13.10;;;16.70;99.90;;;;;;5034052;28;20464;-66
2023/07/07 06:03:30;;;;;;;14.97;14.27;;;16.90;99.90;;;;;;5040887;28;20472;-67
2023/07/07 06:05:57;;;;;;;17.03;16.03;;;17.00;99.90;;;;;;5036782;28;21562;-66
2023/07/07 06:08:24;;;;;;;14.33;13.73;;;17.20;99.90;;;;;;5033247;28;20478;-67
2023/07/07 06:10:51;;;;;;;15.40;14.70;;;17.30;99.90;;;;;;5041682;28;20460;-66
2023/07/07 06:13:23;;;;;;;14.50;13.90;;;17.50;99.90;;;;;;5047713;28;20467;-65
2023/07/07 06:15:50;;;;;;;14.47;13.87;;;17.70;99.90;;;;;;5047168;28;20494;-66
2023/07/07 06:18:17;;;;;;;15.50;14.70;;;17.80;99.90;;;;;;5044088;28;20557;-67
2023/07/07 06:20:49;;;;;;;14.60;14.00;;;18.00;99.90;;;;;;5040779;28;20473;-66
2023/07/07 06:23:15;;;;;;;14.80;14.20;;;18.30;99.90;;;;;;5038407;28;21038;-65
2023/07/07 06:25:42;;;;;;;14.60;14.00;;;18.40;99.90;;;;;;5041176;28;20455;-65
2023/07/07 06:28:09;;;;;;;15.63;14.93;;;18.40;99.90;;;;;;5035109;28;20513;-65
2023/07/07 06:30:36;;;;;;;14.60;14.00;;;18.50;99.90;;;;;;5039436;28;20692;-65
2023/07/07 06:33:03;;;;;;;14.50;13.90;;;18.60;99.90;;;;;;5046169;28;20483;-65
2023/07/07 06:35:30;;;;;;;14.70;14.10;;;18.60;99.90;;;;;;5035923;28;20448;-65
2023/07/07 06:37:58;;;;;;;14.80;14.20;;;18.70;99.90;;;;;;5035625;28;21373;-65
2023/07/07 06:40:25;;;;;;;14.87;14.27;;;18.80;99.90;;;;;;5036980;28;20460;-67
2023/07/07 06:42:55;;;;;;;14.80;14.20;;;18.90;99.90;;;;;;5054738;28;20769;-67
2023/07/07 06:45:22;;;;;;;15.00;14.40;;;19.00;99.90;;;;;;5033490;28;21026;-66
2023/07/07 06:47:49;;;;;;;14.90;14.30;;;19.10;99.90;;;;;;5033959;28;20943;-65
2023/07/07 06:50:18;;;;;;;15.20;14.60;;;19.30;99.90;;;;;;5039718;28;20479;-65
2023/07/07 06:52:45;;;;;;;15.00;14.40;;;19.40;99.90;;;;;;5035037;28;20456;-66
2023/07/07 06:55:13;;;;;;;14.60;14.00;;;19.60;99.90;;;;;;5034083;28;20455;-65
2023/07/07 06:57:40;;;;;;;15.00;14.40;;;19.70;99.90;;;;;;5029833;28;20466;-67
2023/07/07 07:00:08;;;;;;;14.90;14.30;;;19.80;99.90;;;;;;5039122;28;20465;-66
2023/07/07 07:02:49;;;;;;;15.40;14.70;;;19.80;99.90;;;;;;5044510;28;20460;-67
2023/07/07 07:05:18;;;;;;;14.50;13.90;;;19.90;99.90;;;;;;5037057;28;20472;-65
2023/07/07 07:07:45;;;;;;;14.90;14.30;;;20.10;99.90;;;;;;5030817;28;20472;-65
2023/07/07 07:10:13;;;;;;;15.60;15.00;;;20.20;99.90;;;;;;5033078;28;21437;-66
2023/07/07 07:12:40;;;;;;;15.03;14.43;;;20.20;99.90;;;;;;5035436;28;20491;-66
2023/07/07 07:15:09;;;;;;;15.10;14.50;;;20.30;99.90;;;;;;5037011;28;20496;-67
2023/07/07 07:17:36;;;;;;;15.30;14.70;;;20.60;99.90;;;;;;5034677;28;20562;-67
2023/07/07 07:20:04;;;;;;;15.37;14.77;;;20.70;99.90;;;;;;5035856;28;20463;-66
2023/07/07 07:22:32;;;;;;;15.17;14.57;;;20.90;99.90;;;;;;5033419;28;20459;-66
2023/07/07 07:24:58;;;;;;;15.63;14.93;;;21.10;99.90;;;;;;5043703;28;20534;-65
2023/07/07 07:27:27;;;;;;;15.50;14.80;;;21.10;99.90;;;;;;5037978;28;20491;-65
2023/07/07 07:29:54;;;;;;;15.60;14.90;;;21.30;99.90;;;;;;5033229;28;20473;-67
2023/07/07 07:32:23;;;;;;;15.63;14.93;;;21.40;99.90;;;;;;5034099;28;20459;-67
2023/07/07 07:34:50;;;;;;;15.90;15.20;;;21.50;99.90;;;;;;5042529;28;20464;-67
2023/07/07 07:37:16;;;;;;;16.23;15.50;;;21.60;99.90;;;;;;5046186;28;20996;-66
2023/07/07 07:39:43;;;;;;;15.40;14.80;;;21.60;99.90;;;;;;5052115;28;20954;-66
2023/07/07 07:42:10;;;;;;;15.50;14.90;;;21.70;99.90;;;;;;5035293;28;20946;-67
2023/07/07 07:44:38;;;;;;;15.23;14.63;;;22.00;99.90;;;;;;5051676;28;20968;-66
2023/07/07 07:47:06;;;;;;;15.47;14.87;;;22.10;99.90;;;;;;5057734;28;20460;-65
2023/07/07 07:49:33;;;;;;;15.50;14.90;;;22.30;99.90;;;;;;5048027;28;20487;-66
2023/07/07 07:52:02;;;;;;;15.83;15.13;;;22.40;99.90;;;;;;5048226;28;20484;-68
2023/07/07 07:54:29;;;;;;;16.17;15.47;;;22.50;99.90;;;;;;5040792;28;20578;-66
2023/07/07 07:56:57;;;;;;;16.20;15.40;;;22.60;99.90;;;;;;5035558;28;20472;-67
2023/07/07 07:59:24;;;;;;;15.47;14.87;;;22.60;99.90;;;;;;5043581;28;20478;-68
2023/07/07 08:01:52;;;;;;;15.63;15.00;;;22.50;99.90;;;;;;5032320;28;20952;-67
2023/07/07 08:04:19;;;;;;;15.30;14.70;;;22.70;99.90;;;;;;5039757;28;20727;-68
2023/07/07 08:06:46;;;;;;;15.80;15.10;;;22.90;99.90;;;;;;5037586;28;20550;-66
2023/07/07 08:09:13;;;;;;;15.83;15.20;;;23.10;99.90;;;;;;5045436;28;20487;-66
2023/07/07 08:12:01;;;;;;;16.30;15.60;;;23.60;99.90;;;;;;5037279;28;20460;-67
2023/07/07 08:14:32;;;;;;;16.30;15.60;;;24.60;99.90;;;;;;5038430;28;20469;-66
2023/07/07 08:17:04;;;;;;;17.00;16.30;;;25.30;99.90;;;;;;5040038;28;20583;-66
2023/07/07 08:19:34;;;;;;;16.60;15.90;;;26.30;99.90;;;;;;5039203;28;20465;-67
2023/07/07 08:22:01;;;;;;;17.60;16.80;;;26.70;99.90;;;;;;5034940;28;20556;-66
2023/07/07 08:24:29;;;;;;;16.90;16.20;;;27.10;99.90;;;;;;5034574;28;20534;-68
2023/07/07 08:26:56;;;;;;;17.53;16.73;;;27.60;99.90;;;;;;5041548;28;20493;-66
2023/07/07 08:29:23;;;;;;;17.30;16.60;;;28.20;99.90;;;;;;5050039;28;20900;-67
2023/07/07 08:31:50;;;;;;;18.70;17.50;;;28.70;99.90;;;;;;5045863;28;20459;-66
2023/07/07 08:34:18;;;;;;;17.70;16.90;;;28.80;99.90;;;;;;5050422;28;20490;-68
2023/07/07 08:36:47;;;;;;;17.17;16.47;;;29.20;99.90;;;;;;5043941;28;20551;-68
2023/07/07 08:39:16;;;;;;;18.40;17.30;;;29.40;98.90;;;;;;5036813;28;20533;-67
2023/07/07 08:41:49;;;;;;;17.40;16.70;;;29.70;97.40;;;;;;5032552;28;20491;-67
2023/07/07 08:44:19;;;;;;;17.20;16.50;;;29.90;97.50;;;;;;5036548;28;20486;-68
2023/07/07 08:47:02;;;;;;;17.30;16.60;;;30.30;96.70;;;;;;5034538;28;20486;-68
2023/07/07 08:49:36;;;;;;;17.17;16.47;;;30.80;96.10;;;;;;5045815;28;20497;-66
2023/07/07 08:52:17;;;;;;;17.67;16.97;;;31.10;93.60;;;;;;5043862;28;20515;-67
2023/07/07 08:54:52;;;;;;;17.27;16.57;;;30.80;92.90;;;;;;5043468;28;20451;-68
2023/07/07 08:57:19;;;;;;;16.97;16.27;;;30.90;91.60;;;;;;5044236;28;20463;-67
2023/07/07 08:59:54;;;;;;;17.00;16.30;;;31.50;90.50;;;;;;5043658;28;20480;-67
2023/07/07 09:02:45;;;;;;;17.37;16.67;;;31.50;88.40;;;;;;5033090;28;20459;-67
2023/07/07 09:05:26;;;;;;;18.27;17.37;;;31.20;87.50;;;;;;5038011;28;20467;-68
2023/07/07 09:08:03;;;;;;;17.20;16.50;;;31.60;85.90;;;;;;5046403;28;20464;-68
2023/07/07 09:10:47;;;;;;;17.33;16.63;;;31.80;84.50;;;;;;5047578;28;20925;-68
2023/07/07 09:13:21;;;;;;;17.00;16.30;;;31.90;82.60;;;;;;5039012;28;21103;-67
2023/07/07 09:16:00;;;;;;;17.60;16.90;;;31.80;81.50;;;;;;5038938;28;20480;-69
2023/07/07 09:18:34;;;;;;;17.07;16.37;;;32.10;79.70;;;;;;5045248;28;20460;-68
2023/07/07 09:21:05;;;;;;;17.27;16.57;;;32.60;78.90;;;;;;5041816;28;20457;-65
2023/07/07 09:23:35;;;;;;;16.97;16.27;;;33.10;75.30;;;;;;5034722;28;20468;-67
2023/07/07 09:26:07;;;;;;;17.00;16.30;;;33.20;72.00;;;;;;5031911;28;20475;-68
2023/07/07 09:28:40;;;;;;;18.70;17.90;;;33.60;70.80;;;;;;5044468;28;20469;-68
2023/07/07 09:31:20;;;;;;;18.10;17.30;;;33.30;69.20;;;;;;5049133;28;20495;-68
2023/07/07 09:33:47;;;;;;;17.33;16.63;;;33.00;70.00;;;;;;5035838;28;20955;-67
2023/07/07 09:36:19;;;;;;;17.80;17.00;;;33.00;69.10;;;;;;5035743;28;20491;-68
2023/07/07 09:38:57;;;;;;;17.30;16.60;;;33.00;66.60;;;;;;5044599;28;20866;-68
2023/07/07 09:41:34;;;;;;;18.30;17.50;;;33.20;68.40;;;;;;5043229;28;20472;-68
2023/07/07 09:44:29;;;;;;;17.17;16.47;;;33.60;64.60;;;;;;5047969;28;20482;-68
2023/07/07 09:47:05;;;;;;;18.00;17.20;;;34.30;63.50;;;;;;5049498;28;21012;-68
2023/07/07 09:49:40;;;;;;;17.63;16.87;;;34.70;63.10;;;;;;5055292;28;20857;-67
2023/07/07 09:52:21;;;;;;;18.23;17.43;;;34.40;62.00;;;;;;5036972;28;20484;-67
2023/07/07 09:54:49;;;;;;;18.13;17.33;;;34.30;58.60;;;;;;5045570;28;20459;-67
2023/07/07 09:57:22;;;;;;;17.97;17.17;;;35.10;58.40;;;;;;5036778;28;20491;-69
2023/07/07 09:59:53;;;;;;;18.20;17.40;;;35.60;58.50;;;;;;5046739;28;20823;-67
2023/07/07 10:02:23;;;;;;;17.40;16.70;;;35.30;57.40;;;;;;5047363;28;20460;-68
2023/07/07 10:04:55;;;;;;;17.33;16.53;;;35.80;58.30;;;;;;5044829;28;21095;-69
2023/07/07 10:07:25;;;;;;;17.90;17.10;;;35.80;57.50;;;;;;5040108;28;20487;-68
2023/07/07 10:09:52;;;;;;;17.53;16.83;;;35.30;55.20;;;;;;5036391;28;20833;-68
2023/07/07 10:12:19;;;;;;;17.83;17.10;;;34.70;55.80;;;;;;5032910;28;20471;-69
2023/07/07 10:14:48;;;;;;;18.00;17.20;;;34.90;53.80;;;;;;5039691;28;20479;-68
2023/07/07 10:17:26;;;;;;;17.53;16.83;;;34.90;52.80;;;;;;5067072;28;20459;-68
2023/07/07 10:19:57;;;;;;;18.50;17.20;;;35.90;53.50;;;;;;5066036;28;20460;-68
2023/07/07 10:22:26;;;;;;;17.53;16.73;;;36.50;52.50;;;;;;5055396;28;20460;-68
2023/07/07 10:24:53;;;;;;;16.77;16.17;;;36.20;49.60;;;;;;5063921;28;20498;-68
2023/07/07 10:27:23;;;;;;;16.53;15.93;;;36.30;47.90;;;;;;5080496;28;20548;-68
2023/07/07 10:29:50;;;;;;;16.23;15.70;;;36.40;47.50;;;;;;5068159;28;20953;-68
2023/07/07 10:32:19;;;;;;;16.67;16.07;;;36.80;48.50;;;;;;5072869;28;20496;-68
2023/07/07 10:34:48;;;;;;;15.83;15.33;;;36.30;48.60;;;;;;5076683;28;20462;-68
2023/07/07 10:37:20;;;;;;;16.20;15.60;;;36.50;48.50;;;;;;5069671;28;20516;-68
2023/07/07 10:39:52;;;;;;;15.30;14.80;;;36.80;47.60;;;;;;5069787;28;20946;-67
2023/07/07 10:42:20;;;;;;;15.83;15.33;;;36.60;46.50;;;;;;5069506;28;20469;-69
2023/07/07 10:44:47;;;;;;;15.80;15.30;;;36.20;46.50;;;;;;5069122;28;20513;-68
2023/07/07 10:47:21;;;;;;;15.10;14.60;;;36.00;46.00;;;;;;5067426;28;20465;-68
2023/07/07 10:49:49;;;;;;;15.30;14.80;;;35.60;45.00;;;;;;5070402;28;20485;-68
2023/07/07 10:52:42;;;;;;;15.63;15.13;;;36.30;45.20;;;;;;5069417;28;20847;-68
2023/07/07 10:55:19;;;;;;;15.30;14.80;;;36.00;43.80;;;;;;5070647;28;20470;-68
2023/07/07 10:57:59;;;;;;;15.67;15.17;;;35.60;44.70;;;;;;5074306;28;20494;-68
2023/07/07 11:00:38;;;;;;;15.90;15.40;;;35.20;46.90;;;;;;5081249;28;20470;-67
2023/07/07 11:03:30;;;;;;;15.03;14.53;;;34.20;47.70;;;;;;5073065;28;20466;-67
2023/07/07 11:06:03;;;;;;;15.67;15.17;;;34.60;47.30;;;;;;5064414;28;20455;-67
2023/07/07 11:08:40;;;;;;;15.80;15.30;;;34.70;49.50;;;;;;5074357;28;20462;-67
2023/07/07 11:11:20;;;;;;;15.20;14.70;;;35.30;47.30;;;;;;5068773;28;20462;-68
2023/07/07 11:14:03;;;;;;;15.27;14.77;;;35.90;46.50;;;;;;5067985;28;20459;-67
2023/07/07 11:16:38;;;;;;;15.50;15.00;;;35.70;45.10;;;;;;5069606;28;21063;-67
2023/07/07 11:19:34;;;;;;;15.73;15.23;;;35.60;46.40;;;;;;5073827;28;20467;-68
2023/07/07 11:22:14;;;;;;;15.77;15.27;;;36.00;45.20;;;;;;5069231;28;20502;-68
2023/07/07 11:24:45;;;;;;;15.70;15.20;;;37.00;45.00;;;;;;5062880;28;20882;-68
2023/07/07 11:27:34;;;;;;;15.90;15.40;;;37.00;45.40;;;;;;5079581;28;20455;-68
2023/07/07 11:30:11;;;;;;;15.57;15.07;;;37.50;45.30;;;;;;5068862;28;20913;-68
2023/07/07 11:32:46;;;;;;;15.70;15.20;;;38.00;42.50;;;;;;5054435;28;20812;-68
2023/07/07 11:35:31;;;;;;;15.60;15.10;;;38.20;43.30;;;;;;5070737;28;20829;-67
2023/07/07 11:38:20;;;;;;;15.20;14.70;;;37.60;43.10;;;;;;5068385;28;20725;-69
2023/07/07 11:41:08;;;;;;;15.00;14.50;;;37.30;44.40;;;;;;5076024;28;20494;-68
2023/07/07 11:43:51;;;;;;;15.60;15.10;;;37.60;43.80;;;;;;5058424;28;20480;-68
2023/07/07 11:46:33;;;;;;;14.93;14.43;;;38.40;42.30;;;;;;5065655;28;20459;-67
2023/07/07 11:49:12;;;;;;;15.40;14.90;;;39.00;41.80;;;;;;5071647;28;20472;-68
2023/07/07 11:51:49;;;;;;;15.10;14.60;;;39.40;40.70;;;;;;5068319;28;20490;-68
2023/07/07 11:54:39;;;;;;;14.97;14.47;;;38.70;41.40;;;;;;5066464;28;20462;-68
2023/07/07 11:57:33;;;;;;;14.63;14.23;;;38.40;41.90;;;;;;5067653;28;20930;-68
2023/07/07 12:00:13;;;;;;;15.63;15.13;;;38.50;41.10;;;;;;5064393;28;20874;-69
2023/07/07 12:02:45;;;;;;;15.70;15.20;;;38.40;41.30;;;;;;5075041;28;20474;-69
2023/07/07 12:05:19;;;;;;;15.27;14.77;;;38.40;40.60;;;;;;5069094;28;20466;-68
2023/07/07 12:07:51;;;;;;;15.07;14.57;;;38.00;41.70;;;;;;5074899;28;20470;-68
2023/07/07 12:10:20;;;;;;;14.77;14.37;;;38.60;39.20;;;;;;5069900;28;20482;-68
2023/07/07 12:12:55;;;;;;;14.93;14.43;;;38.50;39.40;;;;;;5069400;28;20464;-68
2023/07/07 12:15:27;;;;;;;15.03;14.53;;;39.30;38.80;;;;;;5072930;28;20494;-69
2023/07/07 12:18:02;;;;;;;14.73;14.33;;;38.80;39.60;;;;;;5070468;28;20462;-69
2023/07/07 12:20:33;;;;;;;14.53;14.13;;;38.90;39.40;;;;;;5076198;28;21133;-70
2023/07/07 12:23:04;;;;;;;14.40;14.00;;;39.90;39.80;;;;;;5074143;28;20462;-66
2023/07/07 12:28:13;;;;;;;14.57;14.17;;;39.70;39.50;;;;;;5060386;28;20941;-67
2023/07/07 12:30:46;;;;;;;14.17;13.77;;;39.50;40.00;;;;;;5069831;28;20463;-68
2023/07/07 12:33:14;;;;;;;13.97;13.57;;;39.20;39.50;;;;;;5069389;28;20462;-67
2023/07/07 12:35:47;;;;;;;14.10;13.70;;;39.40;39.70;;;;;;5080915;28;21003;-67
2023/07/07 12:38:22;;;;;;;13.67;13.27;;;40.00;38.50;;;;;;5055460;28;20473;-68
2023/07/07 12:40:49;;;;;;;13.67;13.27;;;38.90;37.90;;;;;;5070364;28;20495;-67
2023/07/07 12:43:23;;;;;;;13.93;13.53;;;39.30;37.40;;;;;;5073714;28;20874;-67
2023/07/07 12:45:52;;;;;;;13.10;12.80;;;39.90;37.50;;;;;;5069984;28;20551;-67
2023/07/07 12:48:23;;;;;;;13.70;13.30;;;40.20;38.70;;;;;;5071923;28;20462;-67
2023/07/07 12:50:51;;;;;;;13.87;13.47;;;40.00;37.80;;;;;;5068412;28;20526;-68
2023/07/07 12:53:27;;;;;;;14.10;13.70;;;39.60;39.00;;;;;;5074310;28;20462;-68
2023/07/07 12:56:01;;;;;;;13.70;13.30;;;40.40;37.20;;;;;;5067696;28;20462;-67